• Join FlightAware (Why Join?)
  • Login
  • US Flag 
12:17AM EDT


 

Airport Tracker/Info


-or-


 

Live Flight TrackerFlight Track Log ✈ N1926A ✈ 14-May-2013 ✈ KLOU - KASG

Flight Track Log - Related Links

Times and Time Zones

All times are in EDT time to prevent confusion due to time zone crossing. See the N1926A flight status page for this flight to view local times or setup timezone preferences in your user account.

Time Position Orientation Groundspeed Altitude Reporting Facility
EDT Latitude Longitude Course Direction KTS MPH feet Rate Location/Type
10:36AM 38.1833 -85.6167 256° West 153 176 3,500  Level Louisville TRACON
10:38AM 38.1075 -85.6622 205° Southwest 160 184 7,300 1,740 Climbing Indianapolis Center
10:39AM 38.0844 -85.7122 240° Southwest 162 186 9,000 1,200 Climbing Indianapolis Center
10:40AM 38.0819 -85.7783 267° West 185 213 9,900 960 Climbing Indianapolis Center
10:41AM 38.1242 -86.1739 256° West  Level Estimated
10:41AM 38.0767 -85.8567 265° West 220 253 11,000  Level Indianapolis Center
10:42AM 38.0794 -85.9272 273° West 204 235 12,600 1,620 Climbing Indianapolis Center
10:43AM 38.0797 -85.9917 270° West 185 213 14,400 1,680 Climbing Indianapolis Center
10:44AM 38.0536 -86.0675 246° West 198 228 16,100 1,500 Climbing Indianapolis Center
10:45AM 38.0339 -86.1331 249° West 201 231 17,500 1,200 Climbing Indianapolis Center
10:46AM 38.0217 -86.2017 257° West 198 228 18,600 1,080 Climbing Indianapolis Center
10:47AM 38.0078 -86.2717 256° West 203 234 19,800 1,140 Climbing Indianapolis Center
10:48AM 37.9958 -86.3397 257° West 198 228 21,000 1,080 Climbing Indianapolis Center
10:49AM 37.9831 -86.4111 257° West 204 235 22,100 960 Climbing Indianapolis Center
10:50AM 37.9714 -86.4819 258° West 204 235 23,100 900 Climbing Indianapolis Center
10:51AM 37.9583 -86.5531 257° West 206 237 24,000 780 Climbing Indianapolis Center
10:52AM 37.9447 -86.6225 256° West 204 235 24,800 840 Climbing Indianapolis Center
10:53AM 37.9228 -86.7067 252° West 208 239 25,800 540 Climbing Indianapolis Center
10:54AM 37.9050 -86.7814 253° West 216 249 26,000 60 Climbing Indianapolis Center
10:55AM 37.8861 -86.8619 253° West 230 265 26,000  Level Indianapolis Center
10:56AM 37.8717 -86.9469 258° West 240 276 26,000  Level Indianapolis Center
10:57AM 37.8583 -87.0328 259° West 245 282 26,000  Level Indianapolis Center
10:58AM 37.8450 -87.1183 259° West 246 283 26,000  Level Indianapolis Center
10:59AM 37.8297 -87.2047 257° West 250 288 26,000  Level Indianapolis Center
11:00AM 37.8122 -87.2925 256° West 253 291 26,000  Level Indianapolis Center
11:01AM 37.7936 -87.3797 255° West 255 293 26,000  Level Indianapolis Center
11:02AM 37.7714 -87.4769 254° West 254 292 26,000  Level Indianapolis Center
11:03AM 37.7533 -87.5653 256° West 257 296 26,000  Level Indianapolis Center
11:04AM 37.7333 -87.6517 254° West 255 293 26,000  Level Indianapolis Center
11:05AM 37.7136 -87.7392 254° West 258 297 26,000  Level Indianapolis Center
11:06AM 37.6936 -87.8247 254° West 254 292 26,000  Level Indianapolis Center
11:07AM 37.6708 -87.9272 254° West 257 296 26,000  Level Indianapolis Center
11:09AM 37.6519 -88.0164 255° West 259 298 26,000  Level Indianapolis Center
11:10AM 37.6317 -88.1047 254° West 260 299 26,000  Level Indianapolis Center
11:11AM 37.6122 -88.1942 255° West 263 303 26,000  Level Indianapolis Center
11:12AM 37.5906 -88.2900 254° West 263 303 26,000  Level Indianapolis Center
11:13AM 37.5703 -88.3806 254° West 266 306 26,000  Level Indianapolis Center
11:13AM 37.5667 -88.4208 264° West 269 310 26,000  Level Memphis Center
11:14AM 37.5450 -88.5078 253° West 269 310 26,000  Level Memphis Center
11:15AM 37.5278 -88.6022 257° West 269 310 26,000  Level Memphis Center
11:16AM 37.5103 -88.6917 256° West 269 310 26,000  Level Memphis Center
11:17AM 37.4928 -88.7808 256° West 263 303 26,000  Level Memphis Center
11:18AM 37.4750 -88.8700 256° West 263 303 26,000  Level Memphis Center
11:19AM 37.4572 -88.9617 256° West 263 303 26,000  Level Memphis Center
11:20AM 37.4394 -89.0508 256° West 263 303 26,000  Level Memphis Center
11:21AM 37.4239 -89.1425 258° West 263 303 26,000  Level Memphis Center
11:22AM 37.3872 -89.2239 240° Southwest 263 303 26,000  Level Memphis Center
11:23AM 37.3461 -89.3028 237° Southwest 269 310 26,000  Level Memphis Center
11:24AM 37.3072 -89.3817 238° Southwest 275 316 26,000  Level Memphis Center
11:25AM 37.2661 -89.4628 238° Southwest 275 316 26,000  Level Memphis Center
11:26AM 37.2250 -89.5417 237° Southwest 275 316 26,000  Level Memphis Center
11:27AM 37.2069 -89.6328 256° West 269 310 26,000  Level Memphis Center
11:28AM 37.1928 -89.7242 259° West 269 310 26,000  Level Memphis Center
11:29AM 37.1786 -89.8128 259° West 269 310 26,000  Level Memphis Center
11:30AM 37.1603 -89.9067 256° West 269 310 26,000  Level Memphis Center
11:31AM 37.1397 -89.9953 254° West 274 315 26,000  Level Memphis Center
11:32AM 37.1169 -90.0864 253° West 274 315 26,000  Level Memphis Center
11:33AM 37.0983 -90.1747 255° West 279 321 26,000  Level Memphis Center
11:34AM 37.0778 -90.2658 254° West 279 321 26,000  Level Memphis Center
11:35AM 37.0569 -90.3569 254° West 279 321 26,000  Level Memphis Center
11:36AM 37.0361 -90.4478 254° West 279 321 26,000  Level Memphis Center
11:37AM 37.0172 -90.5389 255° West 284 327 26,000  Level Memphis Center
11:38AM 36.9961 -90.6297 254° West 284 327 26,000  Level Memphis Center
11:39AM 36.9772 -90.7178 255° West 284 327 26,000 -120 Level Memphis Center
11:40AM 36.9581 -90.8086 255° West 284 327 25,800 -480 Descending Memphis Center
11:41AM 36.9350 -90.9044 253° West 284 327 25,100 -540 Descending Memphis Center
11:42AM 36.9156 -91.0031 256° West 290 334 24,800 -540 Descending Memphis Center
11:43AM 36.8942 -91.1014 255° West 290 334 24,100 -480 Descending Memphis Center
11:44AM 36.8792 -91.1972 259° West 290 334 23,900 -420 Descending Memphis Center
11:45AM 36.8597 -91.2903 255° West 290 334 23,300 -480 Descending Memphis Center
11:46AM 36.8381 -91.3886 255° West 290 334 23,000 -180 Descending Memphis Center
11:47AM 36.8186 -91.4792 255° West 284 327 23,000  Level Memphis Center
11:48AM 36.7969 -91.5719 254° West 279 321 23,000  Level Memphis Center
11:49AM 36.7772 -91.6600 254° West 274 315 23,000  Level Memphis Center
11:50AM 36.7511 -91.7500 250° West 274 315 23,000  Level Memphis Center
11:51AM 36.7253 -91.8375 250° West 274 315 23,000  Level Memphis Center
11:52AM 36.7011 -91.9253 251° West 274 315 23,000  Level Memphis Center
11:53AM 36.6792 -92.0153 253° West 274 315 23,000  Level Memphis Center
11:54AM 36.6614 -92.1056 256° West 274 315 23,000  Level Memphis Center
11:55AM 36.6411 -92.2058 256° West 274 315 23,000  Level Memphis Center
11:56AM 36.6231 -92.2986 256° West 274 315 23,000 -240 Level Memphis Center
11:57AM 36.6028 -92.3886 254° West 274 315 22,600 -600 Descending Memphis Center
11:58AM 36.5825 -92.4836 255° West 285 328 21,800 -840 Descending Memphis Center
11:59AM 36.5619 -92.5839 256° West 291 335 21,000 -1,200 Descending Memphis Center
12:00PM 36.5353 -92.6761 250° West 291 335 19,400 -1,440 Descending Memphis Center
12:01PM 36.5106 -92.7761 253° West 302 348 18,200 -1,140 Descending Memphis Center
12:02PM 36.4836 -92.8708 251° West 302 348 17,200 -1,080 Descending Memphis Center
12:03PM 36.4589 -92.9578 251° West 302 348 16,100 -600 Descending Memphis Center
12:04PM 36.4361 -93.0497 253° West 296 341 16,000 -60 Descending Memphis Center
12:05PM 36.4153 -93.1369 253° West 286 329 16,000  Level Memphis Center
12:06PM 36.3947 -93.2239 254° West 273 314 16,100  Climbing Memphis Center
12:07PM 36.3761 -93.3056 254° West 262 302 16,100 -480 Level Memphis Center
12:08PM 36.3572 -93.3978 256° West 262 302 15,200 -960 Descending Memphis Center
12:09PM 36.3381 -93.4950 256° West 276 318 14,200 -1,260 Descending Memphis Center
12:10PM 36.3211 -93.5869 257° West 281 323 12,700 -1,560 Descending Memphis Center
12:11PM 36.2978 -93.6789 253° West 281 323 11,100 -1,560 Descending Memphis Center
12:12PM 36.2869 -93.7736 262° West 281 323 9,600 -1,620 Descending Memphis Center
12:13PM 36.2908 -93.8639 273° West 275 316 7,900 -2,040 Descending Memphis Center
12:14PM 36.2967 -93.9517 275° West 270 311 5,600 -1,920 Descending Memphis Center
12:15PM 36.3050 -94.0242 278° West 248 285 4,100 -1,080 Descending Memphis Center
12:16PM 36.2992 -94.0806 263° West 203 234 3,500 -540 Descending Memphis Center
12:17PM 36.2753 -94.1078 223° Southwest 137 158 3,100 -420 Descending Memphis Center
12:18PM 36.2333 -94.1161 189° South 127 146 2,700 6,420 Descending Memphis Center
12:19PM 36.2033 -94.1483 221° Southwest 127 146 16,000 6,600 Climbing Memphis Center
12:20PM 36.1711 -94.1725 211° Southwest 127 146 16,000  Level Memphis Center
12:22PM 36.1667 -94.1167 90° East  Level FlightAware Approximate
12:29PM 36.1764 -94.1192 90° East  Level Estimated